sensor_id;sensor_type;location;lat;lon;timestamp;P1;durP1;ratioP1;P2;durP2;ratioP2
28934;SDS011;16044;52.726;-2.108;2023-06-14T00:02:05;11.20;;;3.60;;
28934;SDS011;16044;52.726;-2.108;2023-06-14T00:04:37;9.68;;;3.78;;
28934;SDS011;16044;52.726;-2.108;2023-06-14T00:07:08;7.53;;;3.58;;
28934;SDS011;16044;52.726;-2.108;2023-06-14T00:09:43;7.60;;;3.20;;
28934;SDS011;16044;52.726;-2.108;2023-06-14T00:12:14;8.80;;;3.70;;
28934;SDS011;16044;52.726;-2.108;2023-06-14T00:14:45;6.90;;;3.83;;
28934;SDS011;16044;52.726;-2.108;2023-06-14T00:17:16;7.55;;;3.72;;
28934;SDS011;16044;52.726;-2.108;2023-06-14T00:19:47;9.73;;;3.90;;
28934;SDS011;16044;52.726;-2.108;2023-06-14T00:22:19;8.48;;;3.78;;
28934;SDS011;16044;52.726;-2.108;2023-06-14T00:24:54;8.18;;;4.00;;
28934;SDS011;16044;52.726;-2.108;2023-06-14T00:27:27;7.78;;;3.83;;
28934;SDS011;16044;52.726;-2.108;2023-06-14T00:29:58;10.10;;;4.53;;
28934;SDS011;16044;52.726;-2.108;2023-06-14T00:32:28;7.35;;;3.53;;
28934;SDS011;16044;52.726;-2.108;2023-06-14T00:34:59;6.40;;;3.22;;
28934;SDS011;16044;52.726;-2.108;2023-06-14T00:37:30;8.00;;;3.80;;
28934;SDS011;16044;52.726;-2.108;2023-06-14T00:40:04;9.15;;;3.67;;
28934;SDS011;16044;52.726;-2.108;2023-06-14T00:42:36;8.02;;;3.53;;
28934;SDS011;16044;52.726;-2.108;2023-06-14T00:45:08;7.50;;;3.70;;
28934;SDS011;16044;52.726;-2.108;2023-06-14T00:47:40;8.05;;;3.70;;
28934;SDS011;16044;52.726;-2.108;2023-06-14T00:50:13;7.80;;;3.60;;
28934;SDS011;16044;52.726;-2.108;2023-06-14T00:52:44;6.90;;;3.70;;
28934;SDS011;16044;52.726;-2.108;2023-06-14T00:55:18;5.88;;;3.40;;
28934;SDS011;16044;52.726;-2.108;2023-06-14T00:57:49;9.18;;;3.70;;
28934;SDS011;16044;52.726;-2.108;2023-06-14T01:00:20;9.23;;;3.60;;
28934;SDS011;16044;52.726;-2.108;2023-06-14T01:02:51;7.93;;;3.53;;
28934;SDS011;16044;52.726;-2.108;2023-06-14T01:05:22;7.45;;;3.80;;
28934;SDS011;16044;52.726;-2.108;2023-06-14T01:07:57;8.07;;;4.20;;
28934;SDS011;16044;52.726;-2.108;2023-06-14T01:10:50;6.65;;;3.88;;
28934;SDS011;16044;52.726;-2.108;2023-06-14T01:13:35;10.50;;;4.35;;
28934;SDS011;16044;52.726;-2.108;2023-06-14T01:16:09;6.72;;;4.03;;
28934;SDS011;16044;52.726;-2.108;2023-06-14T01:18:40;14.02;;;4.07;;
28934;SDS011;16044;52.726;-2.108;2023-06-14T01:21:20;6.78;;;3.70;;
28934;SDS011;16044;52.726;-2.108;2023-06-14T01:23:54;8.30;;;4.07;;
28934;SDS011;16044;52.726;-2.108;2023-06-14T01:26:25;8.50;;;3.97;;
28934;SDS011;16044;52.726;-2.108;2023-06-14T01:28:57;7.13;;;3.42;;
28934;SDS011;16044;52.726;-2.108;2023-06-14T01:31:28;7.10;;;3.65;;
28934;SDS011;16044;52.726;-2.108;2023-06-14T01:34:06;5.80;;;3.45;;
28934;SDS011;16044;52.726;-2.108;2023-06-14T01:36:38;8.43;;;3.90;;
28934;SDS011;16044;52.726;-2.108;2023-06-14T01:41:47;5.50;;;3.22;;
28934;SDS011;16044;52.726;-2.108;2023-06-14T01:44:20;7.40;;;3.80;;
28934;SDS011;16044;52.726;-2.108;2023-06-14T01:46:53;8.07;;;3.95;;
28934;SDS011;16044;52.726;-2.108;2023-06-14T01:49:24;6.25;;;3.38;;
28934;SDS011;16044;52.726;-2.108;2023-06-14T01:51:55;6.60;;;3.50;;
28934;SDS011;16044;52.726;-2.108;2023-06-14T01:54:29;9.25;;;4.10;;
28934;SDS011;16044;52.726;-2.108;2023-06-14T01:56:59;6.20;;;3.63;;
28934;SDS011;16044;52.726;-2.108;2023-06-14T01:59:30;10.52;;;4.05;;
28934;SDS011;16044;52.726;-2.108;2023-06-14T02:02:02;7.68;;;4.20;;
28934;SDS011;16044;52.726;-2.108;2023-06-14T02:04:33;11.65;;;4.40;;
28934;SDS011;16044;52.726;-2.108;2023-06-14T02:07:04;13.43;;;5.00;;
28934;SDS011;16044;52.726;-2.108;2023-06-14T02:09:38;10.77;;;4.30;;
28934;SDS011;16044;52.726;-2.108;2023-06-14T02:12:09;10.40;;;4.20;;
28934;SDS011;16044;52.726;-2.108;2023-06-14T02:14:40;9.68;;;4.47;;
28934;SDS011;16044;52.726;-2.108;2023-06-14T02:17:11;9.45;;;4.20;;
28934;SDS011;16044;52.726;-2.108;2023-06-14T02:19:42;9.93;;;4.18;;
28934;SDS011;16044;52.726;-2.108;2023-06-14T02:22:14;9.75;;;4.25;;
28934;SDS011;16044;52.726;-2.108;2023-06-14T02:24:47;7.60;;;4.07;;
28934;SDS011;16044;52.726;-2.108;2023-06-14T02:27:27;8.93;;;4.35;;
28934;SDS011;16044;52.726;-2.108;2023-06-14T02:29:58;8.65;;;4.50;;
28934;SDS011;16044;52.726;-2.108;2023-06-14T02:32:29;10.10;;;4.65;;
28934;SDS011;16044;52.726;-2.108;2023-06-14T02:35:01;9.77;;;4.63;;
28934;SDS011;16044;52.726;-2.108;2023-06-14T02:37:32;9.35;;;4.32;;
28934;SDS011;16044;52.726;-2.108;2023-06-14T02:40:06;11.80;;;4.47;;
28934;SDS011;16044;52.726;-2.108;2023-06-14T02:42:38;12.00;;;4.43;;
28934;SDS011;16044;52.726;-2.108;2023-06-14T02:45:09;10.13;;;4.70;;
28934;SDS011;16044;52.726;-2.108;2023-06-14T02:47:40;7.43;;;4.35;;
28934;SDS011;16044;52.726;-2.108;2023-06-14T02:50:11;11.23;;;4.38;;
28934;SDS011;16044;52.726;-2.108;2023-06-14T02:52:43;7.45;;;4.55;;
28934;SDS011;16044;52.726;-2.108;2023-06-14T02:55:16;10.77;;;4.00;;
28934;SDS011;16044;52.726;-2.108;2023-06-14T02:57:47;11.57;;;4.20;;
28934;SDS011;16044;52.726;-2.108;2023-06-14T03:00:20;7.13;;;4.35;;
28934;SDS011;16044;52.726;-2.108;2023-06-14T03:02:51;5.78;;;4.07;;
28934;SDS011;16044;52.726;-2.108;2023-06-14T03:05:22;9.80;;;4.68;;
28934;SDS011;16044;52.726;-2.108;2023-06-14T03:07:54;9.32;;;4.38;;
28934;SDS011;16044;52.726;-2.108;2023-06-14T03:10:28;8.55;;;4.68;;
28934;SDS011;16044;52.726;-2.108;2023-06-14T03:12:59;10.93;;;4.93;;
28934;SDS011;16044;52.726;-2.108;2023-06-14T03:15:30;9.25;;;4.95;;
28934;SDS011;16044;52.726;-2.108;2023-06-14T03:18:02;9.32;;;4.70;;
28934;SDS011;16044;52.726;-2.108;2023-06-14T03:20:34;12.60;;;5.60;;
28934;SDS011;16044;52.726;-2.108;2023-06-14T03:23:05;9.93;;;4.82;;
28934;SDS011;16044;52.726;-2.108;2023-06-14T03:25:39;9.10;;;5.20;;
28934;SDS011;16044;52.726;-2.108;2023-06-14T03:28:10;10.45;;;5.10;;
28934;SDS011;16044;52.726;-2.108;2023-06-14T03:30:40;11.85;;;5.43;;
28934;SDS011;16044;52.726;-2.108;2023-06-14T03:33:12;15.40;;;5.78;;
28934;SDS011;16044;52.726;-2.108;2023-06-14T03:35:43;9.13;;;4.63;;
28934;SDS011;16044;52.726;-2.108;2023-06-14T03:38:14;7.68;;;4.93;;
28934;SDS011;16044;52.726;-2.108;2023-06-14T03:40:47;8.43;;;5.00;;
28934;SDS011;16044;52.726;-2.108;2023-06-14T03:43:18;9.77;;;4.68;;
28934;SDS011;16044;52.726;-2.108;2023-06-14T03:45:49;11.13;;;5.10;;
28934;SDS011;16044;52.726;-2.108;2023-06-14T03:48:20;11.23;;;4.82;;
28934;SDS011;16044;52.726;-2.108;2023-06-14T03:50:51;17.90;;;5.70;;
28934;SDS011;16044;52.726;-2.108;2023-06-14T03:53:27;9.35;;;5.05;;
28934;SDS011;16044;52.726;-2.108;2023-06-14T03:56:00;11.68;;;5.55;;
28934;SDS011;16044;52.726;-2.108;2023-06-14T03:58:31;12.18;;;5.25;;
28934;SDS011;16044;52.726;-2.108;2023-06-14T04:01:02;13.13;;;5.30;;
28934;SDS011;16044;52.726;-2.108;2023-06-14T04:03:33;10.15;;;4.93;;
28934;SDS011;16044;52.726;-2.108;2023-06-14T04:06:04;8.13;;;5.28;;
28934;SDS011;16044;52.726;-2.108;2023-06-14T04:08:35;10.48;;;5.05;;
28934;SDS011;16044;52.726;-2.108;2023-06-14T04:11:09;11.07;;;4.82;;
28934;SDS011;16044;52.726;-2.108;2023-06-14T04:13:40;11.88;;;4.97;;
28934;SDS011;16044;52.726;-2.108;2023-06-14T04:16:10;10.52;;;5.07;;
28934;SDS011;16044;52.726;-2.108;2023-06-14T04:18:41;10.10;;;5.05;;
28934;SDS011;16044;52.726;-2.108;2023-06-14T04:21:13;11.00;;;5.07;;
28934;SDS011;16044;52.726;-2.108;2023-06-14T04:23:47;10.38;;;4.80;;
28934;SDS011;16044;52.726;-2.108;2023-06-14T04:26:22;7.90;;;4.80;;
28934;SDS011;16044;52.726;-2.108;2023-06-14T04:28:56;10.00;;;5.65;;
28934;SDS011;16044;52.726;-2.108;2023-06-14T04:31:28;9.48;;;4.82;;
28934;SDS011;16044;52.726;-2.108;2023-06-14T04:34:00;10.18;;;4.50;;
28934;SDS011;16044;52.726;-2.108;2023-06-14T04:36:32;12.30;;;5.50;;
28934;SDS011;16044;52.726;-2.108;2023-06-14T04:39:04;9.00;;;5.50;;
28934;SDS011;16044;52.726;-2.108;2023-06-14T04:41:37;10.32;;;4.88;;
28934;SDS011;16044;52.726;-2.108;2023-06-14T04:44:08;10.55;;;5.22;;
28934;SDS011;16044;52.726;-2.108;2023-06-14T04:46:39;8.60;;;4.70;;
28934;SDS011;16044;52.726;-2.108;2023-06-14T04:49:14;8.80;;;4.43;;
28934;SDS011;16044;52.726;-2.108;2023-06-14T04:51:45;6.53;;;4.85;;
28934;SDS011;16044;52.726;-2.108;2023-06-14T04:54:17;9.52;;;5.07;;
28934;SDS011;16044;52.726;-2.108;2023-06-14T04:56:51;9.85;;;4.70;;
28934;SDS011;16044;52.726;-2.108;2023-06-14T04:59:23;10.50;;;5.18;;
28934;SDS011;16044;52.726;-2.108;2023-06-14T05:01:54;8.65;;;5.10;;
28934;SDS011;16044;52.726;-2.108;2023-06-14T05:04:25;10.70;;;5.70;;
28934;SDS011;16044;52.726;-2.108;2023-06-14T05:06:55;13.30;;;4.60;;
28934;SDS011;16044;52.726;-2.108;2023-06-14T05:09:28;10.18;;;4.60;;
28934;SDS011;16044;52.726;-2.108;2023-06-14T05:12:01;9.00;;;4.60;;
28934;SDS011;16044;52.726;-2.108;2023-06-14T05:14:34;10.70;;;4.63;;
28934;SDS011;16044;52.726;-2.108;2023-06-14T05:17:06;6.05;;;3.95;;
28934;SDS011;16044;52.726;-2.108;2023-06-14T05:19:37;9.88;;;4.95;;
28934;SDS011;16044;52.726;-2.108;2023-06-14T05:22:07;11.15;;;5.30;;
28934;SDS011;16044;52.726;-2.108;2023-06-14T05:24:38;11.15;;;4.57;;
28934;SDS011;16044;52.726;-2.108;2023-06-14T05:27:11;12.38;;;4.68;;
28934;SDS011;16044;52.726;-2.108;2023-06-14T05:29:42;7.55;;;4.50;;
28934;SDS011;16044;52.726;-2.108;2023-06-14T05:32:13;9.48;;;4.82;;
28934;SDS011;16044;52.726;-2.108;2023-06-14T05:34:44;8.63;;;4.45;;
28934;SDS011;16044;52.726;-2.108;2023-06-14T05:37:14;12.15;;;4.47;;
28934;SDS011;16044;52.726;-2.108;2023-06-14T05:39:45;7.50;;;4.25;;
28934;SDS011;16044;52.726;-2.108;2023-06-14T05:42:19;8.77;;;3.92;;
28934;SDS011;16044;52.726;-2.108;2023-06-14T05:44:49;8.65;;;4.15;;
28934;SDS011;16044;52.726;-2.108;2023-06-14T05:47:20;9.63;;;4.07;;
28934;SDS011;16044;52.726;-2.108;2023-06-14T05:49:52;8.80;;;4.45;;
28934;SDS011;16044;52.726;-2.108;2023-06-14T05:52:23;7.07;;;3.88;;
28934;SDS011;16044;52.726;-2.108;2023-06-14T05:54:54;7.68;;;4.20;;
28934;SDS011;16044;52.726;-2.108;2023-06-14T05:57:28;8.05;;;3.80;;
28934;SDS011;16044;52.726;-2.108;2023-06-14T05:59:59;6.55;;;3.85;;
28934;SDS011;16044;52.726;-2.108;2023-06-14T06:02:36;8.90;;;4.05;;
28934;SDS011;16044;52.726;-2.108;2023-06-14T06:05:07;9.82;;;4.30;;
28934;SDS011;16044;52.726;-2.108;2023-06-14T06:07:39;5.78;;;3.90;;
28934;SDS011;16044;52.726;-2.108;2023-06-14T06:10:11;8.07;;;4.18;;
28934;SDS011;16044;52.726;-2.108;2023-06-14T06:12:44;5.80;;;3.70;;
28934;SDS011;16044;52.726;-2.108;2023-06-14T06:15:18;7.28;;;4.10;;
28934;SDS011;16044;52.726;-2.108;2023-06-14T06:17:49;14.43;;;4.30;;
28934;SDS011;16044;52.726;-2.108;2023-06-14T06:20:22;6.95;;;4.00;;
28934;SDS011;16044;52.726;-2.108;2023-06-14T06:22:57;8.70;;;3.78;;
28934;SDS011;16044;52.726;-2.108;2023-06-14T06:25:28;9.93;;;3.85;;
28934;SDS011;16044;52.726;-2.108;2023-06-14T06:28:01;8.10;;;4.15;;
28934;SDS011;16044;52.726;-2.108;2023-06-14T06:30:32;6.53;;;3.28;;
28934;SDS011;16044;52.726;-2.108;2023-06-14T06:33:03;9.85;;;4.15;;
28934;SDS011;16044;52.726;-2.108;2023-06-14T06:35:34;6.47;;;3.75;;
28934;SDS011;16044;52.726;-2.108;2023-06-14T06:38:05;9.70;;;4.03;;
28934;SDS011;16044;52.726;-2.108;2023-06-14T06:40:36;7.13;;;3.80;;
28934;SDS011;16044;52.726;-2.108;2023-06-14T06:43:10;8.15;;;3.90;;
28934;SDS011;16044;52.726;-2.108;2023-06-14T06:45:43;10.63;;;4.10;;
28934;SDS011;16044;52.726;-2.108;2023-06-14T06:48:14;8.50;;;3.45;;
28934;SDS011;16044;52.726;-2.108;2023-06-14T06:50:45;12.85;;;3.72;;
28934;SDS011;16044;52.726;-2.108;2023-06-14T06:53:16;8.05;;;3.97;;
28934;SDS011;16044;52.726;-2.108;2023-06-14T06:56:00;9.77;;;3.70;;
28934;SDS011;16044;52.726;-2.108;2023-06-14T06:58:33;9.45;;;4.00;;
28934;SDS011;16044;52.726;-2.108;2023-06-14T07:01:04;7.05;;;3.67;;
28934;SDS011;16044;52.726;-2.108;2023-06-14T07:03:36;7.28;;;3.65;;
28934;SDS011;16044;52.726;-2.108;2023-06-14T07:06:06;9.10;;;4.07;;
28934;SDS011;16044;52.726;-2.108;2023-06-14T07:08:37;8.95;;;3.40;;
28934;SDS011;16044;52.726;-2.108;2023-06-14T07:11:08;11.00;;;4.03;;
28934;SDS011;16044;52.726;-2.108;2023-06-14T07:13:42;7.55;;;3.47;;
28934;SDS011;16044;52.726;-2.108;2023-06-14T07:16:13;8.38;;;3.10;;
28934;SDS011;16044;52.726;-2.108;2023-06-14T07:18:44;9.00;;;3.60;;
28934;SDS011;16044;52.726;-2.108;2023-06-14T07:21:15;9.32;;;3.78;;
28934;SDS011;16044;52.726;-2.108;2023-06-14T07:23:45;11.50;;;3.95;;
28934;SDS011;16044;52.726;-2.108;2023-06-14T07:26:16;8.70;;;3.72;;
28934;SDS011;16044;52.726;-2.108;2023-06-14T07:28:50;11.00;;;3.80;;
28934;SDS011;16044;52.726;-2.108;2023-06-14T07:31:21;9.88;;;4.10;;
28934;SDS011;16044;52.726;-2.108;2023-06-14T07:33:52;9.30;;;3.65;;
28934;SDS011;16044;52.726;-2.108;2023-06-14T07:36:23;10.52;;;3.92;;
28934;SDS011;16044;52.726;-2.108;2023-06-14T07:38:53;14.65;;;3.80;;
28934;SDS011;16044;52.726;-2.108;2023-06-14T07:41:24;9.80;;;3.45;;
28934;SDS011;16044;52.726;-2.108;2023-06-14T07:43:58;10.93;;;3.38;;
28934;SDS011;16044;52.726;-2.108;2023-06-14T07:46:29;12.57;;;3.63;;
28934;SDS011;16044;52.726;-2.108;2023-06-14T07:49:01;13.52;;;4.15;;
28934;SDS011;16044;52.726;-2.108;2023-06-14T07:51:32;12.20;;;3.67;;
28934;SDS011;16044;52.726;-2.108;2023-06-14T07:54:03;10.07;;;3.70;;
28934;SDS011;16044;52.726;-2.108;2023-06-14T07:56:35;9.80;;;3.72;;
28934;SDS011;16044;52.726;-2.108;2023-06-14T07:59:12;8.70;;;3.38;;
28934;SDS011;16044;52.726;-2.108;2023-06-14T08:01:43;7.85;;;3.15;;
28934;SDS011;16044;52.726;-2.108;2023-06-14T08:04:14;11.07;;;3.67;;
28934;SDS011;16044;52.726;-2.108;2023-06-14T08:06:45;14.32;;;3.85;;
28934;SDS011;16044;52.726;-2.108;2023-06-14T08:09:16;9.82;;;3.53;;
28934;SDS011;16044;52.726;-2.108;2023-06-14T08:11:47;11.27;;;3.47;;
28934;SDS011;16044;52.726;-2.108;2023-06-14T08:14:20;10.65;;;4.05;;
28934;SDS011;16044;52.726;-2.108;2023-06-14T08:16:51;11.15;;;3.53;;
28934;SDS011;16044;52.726;-2.108;2023-06-14T08:19:22;11.65;;;3.72;;
28934;SDS011;16044;52.726;-2.108;2023-06-14T08:21:53;9.68;;;3.50;;
28934;SDS011;16044;52.726;-2.108;2023-06-14T08:24:24;10.05;;;3.17;;
28934;SDS011;16044;52.726;-2.108;2023-06-14T08:26:56;11.05;;;3.45;;
28934;SDS011;16044;52.726;-2.108;2023-06-14T08:29:30;14.80;;;3.60;;
28934;SDS011;16044;52.726;-2.108;2023-06-14T08:32:01;9.85;;;3.58;;
28934;SDS011;16044;52.726;-2.108;2023-06-14T08:34:33;12.95;;;3.95;;
28934;SDS011;16044;52.726;-2.108;2023-06-14T08:37:04;10.65;;;3.50;;
28934;SDS011;16044;52.726;-2.108;2023-06-14T08:39:35;11.73;;;3.30;;
28934;SDS011;16044;52.726;-2.108;2023-06-14T08:42:06;10.80;;;3.75;;
28934;SDS011;16044;52.726;-2.108;2023-06-14T08:44:58;12.75;;;4.15;;
28934;SDS011;16044;52.726;-2.108;2023-06-14T08:47:30;9.35;;;3.58;;
28934;SDS011;16044;52.726;-2.108;2023-06-14T08:50:08;10.55;;;3.55;;
28934;SDS011;16044;52.726;-2.108;2023-06-14T08:52:54;11.82;;;3.20;;
28934;SDS011;16044;52.726;-2.108;2023-06-14T08:55:31;11.55;;;3.38;;
28934;SDS011;16044;52.726;-2.108;2023-06-14T08:58:08;14.23;;;3.83;;
28934;SDS011;16044;52.726;-2.108;2023-06-14T09:00:44;12.65;;;3.75;;
28934;SDS011;16044;52.726;-2.108;2023-06-14T09:03:16;16.00;;;3.75;;
28934;SDS011;16044;52.726;-2.108;2023-06-14T09:05:47;16.42;;;4.13;;
28934;SDS011;16044;52.726;-2.108;2023-06-14T09:08:19;16.92;;;3.97;;
28934;SDS011;16044;52.726;-2.108;2023-06-14T09:10:50;11.35;;;3.60;;
28934;SDS011;16044;52.726;-2.108;2023-06-14T09:13:22;14.38;;;3.75;;
28934;SDS011;16044;52.726;-2.108;2023-06-14T09:15:59;10.38;;;4.00;;
28934;SDS011;16044;52.726;-2.108;2023-06-14T09:18:34;16.95;;;3.70;;
28934;SDS011;16044;52.726;-2.108;2023-06-14T09:21:05;10.70;;;3.67;;
28934;SDS011;16044;52.726;-2.108;2023-06-14T09:23:37;11.13;;;3.78;;
28934;SDS011;16044;52.726;-2.108;2023-06-14T09:26:09;17.33;;;4.72;;
28934;SDS011;16044;52.726;-2.108;2023-06-14T09:28:42;13.88;;;4.15;;
28934;SDS011;16044;52.726;-2.108;2023-06-14T09:31:17;12.13;;;3.25;;
28934;SDS011;16044;52.726;-2.108;2023-06-14T09:33:49;9.52;;;3.78;;
28934;SDS011;16044;52.726;-2.108;2023-06-14T09:36:23;15.40;;;3.70;;
28934;SDS011;16044;52.726;-2.108;2023-06-14T09:38:56;15.63;;;3.65;;
28934;SDS011;16044;52.726;-2.108;2023-06-14T09:41:31;18.73;;;4.22;;
28934;SDS011;16044;52.726;-2.108;2023-06-14T09:44:03;7.53;;;3.38;;
28934;SDS011;16044;52.726;-2.108;2023-06-14T09:46:45;9.70;;;3.88;;
28934;SDS011;16044;52.726;-2.108;2023-06-14T09:49:16;11.68;;;3.88;;
28934;SDS011;16044;52.726;-2.108;2023-06-14T09:51:49;11.23;;;3.85;;
28934;SDS011;16044;52.726;-2.108;2023-06-14T09:56:54;13.95;;;3.78;;
28934;SDS011;16044;52.726;-2.108;2023-06-14T09:59:26;15.52;;;4.35;;
28934;SDS011;16044;52.726;-2.108;2023-06-14T10:02:04;11.70;;;3.97;;
28934;SDS011;16044;52.726;-2.108;2023-06-14T10:04:50;11.27;;;3.70;;
28934;SDS011;16044;52.726;-2.108;2023-06-14T10:07:27;11.88;;;3.58;;
28934;SDS011;16044;52.726;-2.108;2023-06-14T10:10:02;12.02;;;4.35;;
28934;SDS011;16044;52.726;-2.108;2023-06-14T10:12:34;9.85;;;3.72;;
28934;SDS011;16044;52.726;-2.108;2023-06-14T10:15:07;10.57;;;3.40;;
28934;SDS011;16044;52.726;-2.108;2023-06-14T10:17:46;11.32;;;3.80;;
28934;SDS011;16044;52.726;-2.108;2023-06-14T10:20:25;9.75;;;3.65;;
28934;SDS011;16044;52.726;-2.108;2023-06-14T10:23:03;13.77;;;4.00;;
28934;SDS011;16044;52.726;-2.108;2023-06-14T10:25:40;7.53;;;3.83;;
28934;SDS011;16044;52.726;-2.108;2023-06-14T10:28:16;12.15;;;4.13;;
28934;SDS011;16044;52.726;-2.108;2023-06-14T10:31:02;12.40;;;3.55;;
28934;SDS011;16044;52.726;-2.108;2023-06-14T10:33:38;10.88;;;4.30;;
28934;SDS011;16044;52.726;-2.108;2023-06-14T10:36:26;9.48;;;4.05;;
28934;SDS011;16044;52.726;-2.108;2023-06-14T10:38:58;9.02;;;3.60;;
28934;SDS011;16044;52.726;-2.108;2023-06-14T10:41:32;6.65;;;3.33;;
28934;SDS011;16044;52.726;-2.108;2023-06-14T10:47:20;9.02;;;4.00;;
28934;SDS011;16044;52.726;-2.108;2023-06-14T10:50:03;11.10;;;4.13;;
28934;SDS011;16044;52.726;-2.108;2023-06-14T10:52:38;9.68;;;3.45;;
28934;SDS011;16044;52.726;-2.108;2023-06-14T10:55:13;13.10;;;3.80;;
28934;SDS011;16044;52.726;-2.108;2023-06-14T10:57:46;13.20;;;3.70;;
28934;SDS011;16044;52.726;-2.108;2023-06-14T11:00:21;8.07;;;3.60;;
28934;SDS011;16044;52.726;-2.108;2023-06-14T11:06:17;10.45;;;3.92;;
28934;SDS011;16044;52.726;-2.108;2023-06-14T11:12:05;10.23;;;3.45;;
28934;SDS011;16044;52.726;-2.108;2023-06-14T11:14:40;8.32;;;3.67;;
28934;SDS011;16044;52.726;-2.108;2023-06-14T11:17:12;12.65;;;3.85;;
28934;SDS011;16044;52.726;-2.108;2023-06-14T11:19:43;14.55;;;4.00;;
28934;SDS011;16044;52.726;-2.108;2023-06-14T11:22:17;11.68;;;4.18;;
28934;SDS011;16044;52.726;-2.108;2023-06-14T11:24:47;9.20;;;3.83;;
28934;SDS011;16044;52.726;-2.108;2023-06-14T11:27:18;11.18;;;3.80;;
28934;SDS011;16044;52.726;-2.108;2023-06-14T11:29:49;8.68;;;3.42;;
28934;SDS011;16044;52.726;-2.108;2023-06-14T11:32:20;13.10;;;4.07;;
28934;SDS011;16044;52.726;-2.108;2023-06-14T11:34:51;8.88;;;3.97;;
28934;SDS011;16044;52.726;-2.108;2023-06-14T11:37:25;12.05;;;4.40;;
28934;SDS011;16044;52.726;-2.108;2023-06-14T11:39:57;11.50;;;4.10;;
28934;SDS011;16044;52.726;-2.108;2023-06-14T11:42:30;18.67;;;3.97;;
28934;SDS011;16044;52.726;-2.108;2023-06-14T11:45:01;12.65;;;3.92;;
28934;SDS011;16044;52.726;-2.108;2023-06-14T11:47:35;8.45;;;3.55;;
28934;SDS011;16044;52.726;-2.108;2023-06-14T11:50:08;9.90;;;4.13;;
28934;SDS011;16044;52.726;-2.108;2023-06-14T11:52:42;10.48;;;3.67;;
28934;SDS011;16044;52.726;-2.108;2023-06-14T11:55:13;8.35;;;3.65;;
28934;SDS011;16044;52.726;-2.108;2023-06-14T11:57:46;10.25;;;3.70;;
28934;SDS011;16044;52.726;-2.108;2023-06-14T12:00:17;11.80;;;4.40;;
28934;SDS011;16044;52.726;-2.108;2023-06-14T12:02:52;9.32;;;3.70;;
28934;SDS011;16044;52.726;-2.108;2023-06-14T12:05:24;11.38;;;4.00;;
28934;SDS011;16044;52.726;-2.108;2023-06-14T12:08:01;9.77;;;4.28;;
28934;SDS011;16044;52.726;-2.108;2023-06-14T12:10:41;13.77;;;4.03;;
28934;SDS011;16044;52.726;-2.108;2023-06-14T12:13:12;11.43;;;3.88;;
28934;SDS011;16044;52.726;-2.108;2023-06-14T12:15:53;9.82;;;3.85;;
28934;SDS011;16044;52.726;-2.108;2023-06-14T12:18:31;9.48;;;3.53;;
28934;SDS011;16044;52.726;-2.108;2023-06-14T12:21:04;9.75;;;3.60;;
28934;SDS011;16044;52.726;-2.108;2023-06-14T12:23:44;10.60;;;3.60;;
28934;SDS011;16044;52.726;-2.108;2023-06-14T12:26:17;11.68;;;4.13;;
28934;SDS011;16044;52.726;-2.108;2023-06-14T12:28:51;9.23;;;3.78;;
28934;SDS011;16044;52.726;-2.108;2023-06-14T12:31:22;12.13;;;3.83;;
28934;SDS011;16044;52.726;-2.108;2023-06-14T12:33:53;8.27;;;3.45;;
28934;SDS011;16044;52.726;-2.108;2023-06-14T12:36:24;8.52;;;3.70;;
28934;SDS011;16044;52.726;-2.108;2023-06-14T12:38:59;13.57;;;3.63;;
28934;SDS011;16044;52.726;-2.108;2023-06-14T12:41:30;10.88;;;3.63;;
28934;SDS011;16044;52.726;-2.108;2023-06-14T12:44:01;10.30;;;3.55;;
28934;SDS011;16044;52.726;-2.108;2023-06-14T12:46:31;14.45;;;4.18;;
28934;SDS011;16044;52.726;-2.108;2023-06-14T12:49:03;11.10;;;4.00;;
28934;SDS011;16044;52.726;-2.108;2023-06-14T12:51:34;9.68;;;3.72;;
28934;SDS011;16044;52.726;-2.108;2023-06-14T12:54:10;8.48;;;3.72;;
28934;SDS011;16044;52.726;-2.108;2023-06-14T12:56:53;6.60;;;3.55;;
28934;SDS011;16044;52.726;-2.108;2023-06-14T12:59:24;10.63;;;3.63;;
28934;SDS011;16044;52.726;-2.108;2023-06-14T13:04:41;10.45;;;3.50;;
28934;SDS011;16044;52.726;-2.108;2023-06-14T13:07:12;10.45;;;3.80;;
28934;SDS011;16044;52.726;-2.108;2023-06-14T13:09:46;8.10;;;3.75;;
28934;SDS011;16044;52.726;-2.108;2023-06-14T13:12:17;9.95;;;3.70;;
28934;SDS011;16044;52.726;-2.108;2023-06-14T13:14:47;9.63;;;3.85;;
28934;SDS011;16044;52.726;-2.108;2023-06-14T13:17:18;8.45;;;3.75;;
28934;SDS011;16044;52.726;-2.108;2023-06-14T13:19:49;5.90;;;3.63;;
28934;SDS011;16044;52.726;-2.108;2023-06-14T13:22:20;9.75;;;3.90;;
28934;SDS011;16044;52.726;-2.108;2023-06-14T13:24:53;10.90;;;3.78;;
28934;SDS011;16044;52.726;-2.108;2023-06-14T13:27:25;10.20;;;3.50;;
28934;SDS011;16044;52.726;-2.108;2023-06-14T13:29:56;11.13;;;4.22;;
28934;SDS011;16044;52.726;-2.108;2023-06-14T13:32:27;6.22;;;3.47;;
28934;SDS011;16044;52.726;-2.108;2023-06-14T13:34:58;10.73;;;3.47;;
28934;SDS011;16044;52.726;-2.108;2023-06-14T13:37:30;10.80;;;3.83;;
28934;SDS011;16044;52.726;-2.108;2023-06-14T13:40:04;10.07;;;3.90;;
28934;SDS011;16044;52.726;-2.108;2023-06-14T13:42:37;8.48;;;3.75;;
28934;SDS011;16044;52.726;-2.108;2023-06-14T13:45:08;11.35;;;3.97;;
28934;SDS011;16044;52.726;-2.108;2023-06-14T13:47:41;12.25;;;3.95;;
28934;SDS011;16044;52.726;-2.108;2023-06-14T13:50:15;10.17;;;3.60;;
28934;SDS011;16044;52.726;-2.108;2023-06-14T13:52:46;8.13;;;3.80;;
28934;SDS011;16044;52.726;-2.108;2023-06-14T13:55:20;9.70;;;3.83;;
28934;SDS011;16044;52.726;-2.108;2023-06-14T13:57:50;12.73;;;4.25;;
28934;SDS011;16044;52.726;-2.108;2023-06-14T14:00:21;13.85;;;3.78;;
28934;SDS011;16044;52.726;-2.108;2023-06-14T14:02:52;9.30;;;4.20;;
28934;SDS011;16044;52.726;-2.108;2023-06-14T14:05:24;9.27;;;3.92;;
28934;SDS011;16044;52.726;-2.108;2023-06-14T14:07:56;6.63;;;3.78;;
28934;SDS011;16044;52.726;-2.108;2023-06-14T14:10:29;11.35;;;4.10;;
28934;SDS011;16044;52.726;-2.108;2023-06-14T14:13:00;16.20;;;4.07;;
28934;SDS011;16044;52.726;-2.108;2023-06-14T14:15:31;13.48;;;3.92;;
28934;SDS011;16044;52.726;-2.108;2023-06-14T14:18:03;12.90;;;4.28;;
28934;SDS011;16044;52.726;-2.108;2023-06-14T14:20:34;9.13;;;3.78;;
28934;SDS011;16044;52.726;-2.108;2023-06-14T14:23:05;9.40;;;3.58;;
28934;SDS011;16044;52.726;-2.108;2023-06-14T14:25:38;10.82;;;4.22;;
28934;SDS011;16044;52.726;-2.108;2023-06-14T14:28:09;9.32;;;3.92;;
28934;SDS011;16044;52.726;-2.108;2023-06-14T14:30:40;8.20;;;3.92;;
28934;SDS011;16044;52.726;-2.108;2023-06-14T14:33:11;6.78;;;3.60;;
28934;SDS011;16044;52.726;-2.108;2023-06-14T14:35:43;6.30;;;3.60;;
28934;SDS011;16044;52.726;-2.108;2023-06-14T14:38:15;10.20;;;4.00;;
28934;SDS011;16044;52.726;-2.108;2023-06-14T14:40:49;9.68;;;3.80;;
28934;SDS011;16044;52.726;-2.108;2023-06-14T14:43:19;6.88;;;3.60;;
28934;SDS011;16044;52.726;-2.108;2023-06-14T14:45:50;7.82;;;4.03;;
28934;SDS011;16044;52.726;-2.108;2023-06-14T14:48:21;11.85;;;4.07;;
28934;SDS011;16044;52.726;-2.108;2023-06-14T14:50:52;12.98;;;3.88;;
28934;SDS011;16044;52.726;-2.108;2023-06-14T14:53:23;10.27;;;3.90;;
28934;SDS011;16044;52.726;-2.108;2023-06-14T14:55:56;12.50;;;4.00;;
28934;SDS011;16044;52.726;-2.108;2023-06-14T14:58:27;10.40;;;3.97;;
28934;SDS011;16044;52.726;-2.108;2023-06-14T15:00:58;10.63;;;3.67;;
28934;SDS011;16044;52.726;-2.108;2023-06-14T15:03:29;8.75;;;3.33;;
28934;SDS011;16044;52.726;-2.108;2023-06-14T15:06:19;9.95;;;3.75;;
28934;SDS011;16044;52.726;-2.108;2023-06-14T15:08:49;12.27;;;3.60;;
28934;SDS011;16044;52.726;-2.108;2023-06-14T15:11:23;9.73;;;3.70;;
28934;SDS011;16044;52.726;-2.108;2023-06-14T15:13:54;10.45;;;3.83;;
28934;SDS011;16044;52.726;-2.108;2023-06-14T15:16:25;6.80;;;3.70;;
28934;SDS011;16044;52.726;-2.108;2023-06-14T15:18:56;11.18;;;3.67;;